Hemet, California
Current Conditions -  °F | °C
As of 6:35 AM on Thursday 27 Nov 2014 (Local Time) from KF70 Reporting Station
Clear Clear  
Wind Chill: 45°   Ceiling: Unl
Heat Index: 48°   Visibility: 10mi
Dew Point: 25°   Wind: 7mph
Humidity: 40%   Direction: 360°N
Pressure: 30.16"   Gusts: NA
Location:  33.75°N, 116.96°W
Report Text: KF70 271435Z AUTO 36006KT 10SM CLR 09/M04 A3016 RMK AO1
Loading
Personal Weather Stations






























Interactive Weather Map New forecast layout! Learn more

10-Day Weather Forecast

Advertisements
Track Severe Weather on mobile